sensor_id;sensor_type;location;lat;lon;timestamp;pressure;altitude;pressure_sealevel;temperature;humidity
24230;BME280;12362;50.004;8.006;2023-03-29T00:00:37;100972.19;;;6.97;100.00
24230;BME280;12362;50.004;8.006;2023-03-29T00:03:03;100962.63;;;6.99;100.00
24230;BME280;12362;50.004;8.006;2023-03-29T00:05:29;100963.25;;;7.10;100.00
24230;BME280;12362;50.004;8.006;2023-03-29T00:07:59;100967.50;;;7.11;100.00
24230;BME280;12362;50.004;8.006;2023-03-29T00:10:30;100953.00;;;7.07;100.00
24230;BME280;12362;50.004;8.006;2023-03-29T00:12:56;100969.31;;;7.08;100.00
24230;BME280;12362;50.004;8.006;2023-03-29T00:15:22;100965.84;;;7.09;100.00
24230;BME280;12362;50.004;8.006;2023-03-29T00:17:48;100965.13;;;7.04;100.00
24230;BME280;12362;50.004;8.006;2023-03-29T00:20:13;100965.22;;;6.99;100.00
24230;BME280;12362;50.004;8.006;2023-03-29T00:22:40;100955.91;;;6.94;100.00
24230;BME280;12362;50.004;8.006;2023-03-29T00:25:10;100957.69;;;6.92;100.00
24230;BME280;12362;50.004;8.006;2023-03-29T00:27:37;100966.00;;;7.03;100.00
24230;BME280;12362;50.004;8.006;2023-03-29T00:30:04;100958.28;;;7.03;100.00
24230;BME280;12362;50.004;8.006;2023-03-29T00:32:30;100954.31;;;6.90;100.00
24230;BME280;12362;50.004;8.006;2023-03-29T00:34:57;100944.88;;;6.87;100.00
24230;BME280;12362;50.004;8.006;2023-03-29T00:37:22;100942.97;;;6.95;100.00
24230;BME280;12362;50.004;8.006;2023-03-29T00:39:54;100943.22;;;6.86;100.00
24230;BME280;12362;50.004;8.006;2023-03-29T00:42:20;100943.81;;;6.96;100.00
24230;BME280;12362;50.004;8.006;2023-03-29T00:47:39;100932.59;;;6.97;100.00
24230;BME280;12362;50.004;8.006;2023-03-29T00:52:38;100932.72;;;6.92;100.00
24230;BME280;12362;50.004;8.006;2023-03-29T00:55:07;100920.50;;;6.99;100.00
24230;BME280;12362;50.004;8.006;2023-03-29T00:57:36;100921.56;;;6.92;100.00
24230;BME280;12362;50.004;8.006;2023-03-29T01:00:05;100915.72;;;6.84;100.00
24230;BME280;12362;50.004;8.006;2023-03-29T01:02:35;100906.16;;;6.87;100.00
24230;BME280;12362;50.004;8.006;2023-03-29T01:05:10;100908.91;;;6.81;100.00
24230;BME280;12362;50.004;8.006;2023-03-29T01:07:58;100926.09;;;6.82;100.00
24230;BME280;12362;50.004;8.006;2023-03-29T01:10:33;100910.53;;;6.85;100.00
24230;BME280;12362;50.004;8.006;2023-03-29T01:13:07;100917.41;;;6.86;100.00
24230;BME280;12362;50.004;8.006;2023-03-29T01:15:36;100912.13;;;6.91;100.00
24230;BME280;12362;50.004;8.006;2023-03-29T01:18:05;100909.41;;;6.95;100.00
24230;BME280;12362;50.004;8.006;2023-03-29T01:21:03;100900.69;;;6.99;100.00
24230;BME280;12362;50.004;8.006;2023-03-29T01:26:58;100897.19;;;7.02;100.00
24230;BME280;12362;50.004;8.006;2023-03-29T01:31:47;100889.47;;;7.00;100.00
24230;BME280;12362;50.004;8.006;2023-03-29T01:34:23;100884.31;;;7.00;100.00
24230;BME280;12362;50.004;8.006;2023-03-29T01:37:03;100886.88;;;7.02;100.00
24230;BME280;12362;50.004;8.006;2023-03-29T01:39:30;100882.53;;;7.02;100.00
24230;BME280;12362;50.004;8.006;2023-03-29T01:42:09;100880.16;;;6.95;100.00
24230;BME280;12362;50.004;8.006;2023-03-29T01:44:55;100880.97;;;6.98;100.00
24230;BME280;12362;50.004;8.006;2023-03-29T01:47:49;100872.28;;;7.01;100.00
24230;BME280;12362;50.004;8.006;2023-03-29T01:53:00;100877.44;;;7.01;100.00
24230;BME280;12362;50.004;8.006;2023-03-29T01:55:34;100863.72;;;6.99;100.00
24230;BME280;12362;50.004;8.006;2023-03-29T01:58:04;100854.00;;;7.08;100.00
24230;BME280;12362;50.004;8.006;2023-03-29T02:00:33;100851.50;;;7.05;100.00
24230;BME280;12362;50.004;8.006;2023-03-29T02:03:04;100852.31;;;7.06;100.00
24230;BME280;12362;50.004;8.006;2023-03-29T02:05:32;100852.59;;;6.97;100.00
24230;BME280;12362;50.004;8.006;2023-03-29T02:08:00;100862.91;;;6.97;100.00
24230;BME280;12362;50.004;8.006;2023-03-29T02:10:27;100849.97;;;6.98;100.00
24230;BME280;12362;50.004;8.006;2023-03-29T02:12:53;100853.44;;;6.97;100.00
24230;BME280;12362;50.004;8.006;2023-03-29T02:15:20;100856.03;;;6.96;100.00
24230;BME280;12362;50.004;8.006;2023-03-29T02:17:46;100856.03;;;6.96;100.00
24230;BME280;12362;50.004;8.006;2023-03-29T02:20:18;100844.16;;;6.90;100.00
24230;BME280;12362;50.004;8.006;2023-03-29T02:23:01;100850.19;;;6.89;100.00
24230;BME280;12362;50.004;8.006;2023-03-29T02:25:29;100847.66;;;6.88;100.00
24230;BME280;12362;50.004;8.006;2023-03-29T02:27:57;100855.34;;;6.91;100.00
24230;BME280;12362;50.004;8.006;2023-03-29T02:30:29;100845.78;;;6.94;100.00
24230;BME280;12362;50.004;8.006;2023-03-29T02:33:02;100842.47;;;6.89;100.00
24230;BME280;12362;50.004;8.006;2023-03-29T02:35:34;100833.69;;;6.95;100.00
24230;BME280;12362;50.004;8.006;2023-03-29T02:38:06;100834.56;;;6.95;100.00
24230;BME280;12362;50.004;8.006;2023-03-29T02:40:33;100830.28;;;6.94;100.00
24230;BME280;12362;50.004;8.006;2023-03-29T02:43:03;100822.75;;;6.87;100.00
24230;BME280;12362;50.004;8.006;2023-03-29T02:45:31;100822.50;;;6.96;100.00
24230;BME280;12362;50.004;8.006;2023-03-29T02:48:01;100826.75;;;6.98;100.00
24230;BME280;12362;50.004;8.006;2023-03-29T02:50:32;100826.84;;;6.94;100.00
24230;BME280;12362;50.004;8.006;2023-03-29T02:53:02;100826.75;;;6.98;100.00
24230;BME280;12362;50.004;8.006;2023-03-29T02:55:31;100819.44;;;6.82;100.00
24230;BME280;12362;50.004;8.006;2023-03-29T02:58:00;100804.94;;;6.78;100.00
24230;BME280;12362;50.004;8.006;2023-03-29T03:00:36;100809.16;;;6.80;100.00
24230;BME280;12362;50.004;8.006;2023-03-29T03:03:05;100804.88;;;6.81;100.00
24230;BME280;12362;50.004;8.006;2023-03-29T03:05:32;100805.69;;;6.81;100.00
24230;BME280;12362;50.004;8.006;2023-03-29T03:07:58;100808.19;;;6.84;100.00
24230;BME280;12362;50.004;8.006;2023-03-29T03:10:23;100812.38;;;6.88;100.00
24230;BME280;12362;50.004;8.006;2023-03-29T03:12:49;100813.16;;;6.92;100.00
24230;BME280;12362;50.004;8.006;2023-03-29T03:15:15;100808.75;;;6.95;100.00
24230;BME280;12362;50.004;8.006;2023-03-29T03:17:41;100803.31;;;7.04;100.00
24230;BME280;12362;50.004;8.006;2023-03-29T03:20:08;100805.31;;;6.95;100.00
24230;BME280;12362;50.004;8.006;2023-03-29T03:22:45;100796.13;;;6.85;100.00
24230;BME280;12362;50.004;8.006;2023-03-29T03:25:14;100794.41;;;6.85;100.00
24230;BME280;12362;50.004;8.006;2023-03-29T03:27:41;100792.66;;;6.86;100.00
24230;BME280;12362;50.004;8.006;2023-03-29T03:30:08;100790.97;;;6.85;100.00
24230;BME280;12362;50.004;8.006;2023-03-29T03:33:06;100785.53;;;6.94;100.00
24230;BME280;12362;50.004;8.006;2023-03-29T03:35:50;100786.41;;;6.94;100.00
24230;BME280;12362;50.004;8.006;2023-03-29T03:38:17;100780.50;;;6.91;100.00
24230;BME280;12362;50.004;8.006;2023-03-29T03:40:52;100782.94;;;6.95;100.00
24230;BME280;12362;50.004;8.006;2023-03-29T03:43:18;100789.75;;;6.98;100.00
24230;BME280;12362;50.004;8.006;2023-03-29T03:45:47;100787.03;;;7.02;100.00
24230;BME280;12362;50.004;8.006;2023-03-29T03:48:15;100788.81;;;7.00;100.00
24230;BME280;12362;50.004;8.006;2023-03-29T03:50:55;100777.56;;;7.03;100.00
24230;BME280;12362;50.004;8.006;2023-03-29T03:53:24;100771.53;;;7.04;100.00
24230;BME280;12362;50.004;8.006;2023-03-29T03:56:09;100773.28;;;7.02;100.00
24230;BME280;12362;50.004;8.006;2023-03-29T03:58:49;100785.34;;;7.01;100.00
24230;BME280;12362;50.004;8.006;2023-03-29T04:01:16;100784.50;;;7.01;100.00
24230;BME280;12362;50.004;8.006;2023-03-29T04:03:53;100782.69;;;7.04;100.00
24230;BME280;12362;50.004;8.006;2023-03-29T04:06:20;100777.44;;;7.07;100.00
24230;BME280;12362;50.004;8.006;2023-03-29T04:09:04;100787.16;;;6.98;100.00
24230;BME280;12362;50.004;8.006;2023-03-29T04:11:36;100778.31;;;7.06;100.00
24230;BME280;12362;50.004;8.006;2023-03-29T04:14:03;100783.50;;;7.05;100.00
24230;BME280;12362;50.004;8.006;2023-03-29T04:16:55;100777.44;;;7.07;100.00
24230;BME280;12362;50.004;8.006;2023-03-29T04:19:39;100778.28;;;7.08;100.00
24230;BME280;12362;50.004;8.006;2023-03-29T04:22:05;100768.88;;;7.05;100.00
24230;BME280;12362;50.004;8.006;2023-03-29T04:24:30;100765.44;;;7.05;100.00
24230;BME280;12362;50.004;8.006;2023-03-29T04:27:16;100770.66;;;7.03;100.00
24230;BME280;12362;50.004;8.006;2023-03-29T04:29:42;100766.47;;;6.99;100.00
24230;BME280;12362;50.004;8.006;2023-03-29T04:32:46;100760.47;;;6.99;100.00
24230;BME280;12362;50.004;8.006;2023-03-29T04:35:11;100756.06;;;7.02;100.00
24230;BME280;12362;50.004;8.006;2023-03-29T04:37:37;100752.81;;;6.96;100.00
24230;BME280;12362;50.004;8.006;2023-03-29T04:40:07;100749.38;;;6.95;100.00
24230;BME280;12362;50.004;8.006;2023-03-29T04:42:46;100748.53;;;6.95;100.00
24230;BME280;12362;50.004;8.006;2023-03-29T04:45:13;100746.00;;;6.93;100.00
24230;BME280;12362;50.004;8.006;2023-03-29T04:47:57;100744.16;;;6.97;100.00
24230;BME280;12362;50.004;8.006;2023-03-29T04:50:26;100748.38;;;6.99;100.00
24230;BME280;12362;50.004;8.006;2023-03-29T04:52:52;100750.88;;;7.04;100.00
24230;BME280;12362;50.004;8.006;2023-03-29T04:55:18;100748.16;;;7.08;100.00
24230;BME280;12362;50.004;8.006;2023-03-29T04:57:51;100754.34;;;7.01;100.00
24230;BME280;12362;50.004;8.006;2023-03-29T05:00:27;100751.78;;;7.01;100.00
24230;BME280;12362;50.004;8.006;2023-03-29T05:03:01;100751.03;;;6.98;100.00
24230;BME280;12362;50.004;8.006;2023-03-29T05:05:31;100758.72;;;6.99;100.00
24230;BME280;12362;50.004;8.006;2023-03-29T05:07:59;100752.59;;;7.03;100.00
24230;BME280;12362;50.004;8.006;2023-03-29T05:10:33;100755.09;;;7.06;100.00
24230;BME280;12362;50.004;8.006;2023-03-29T05:12:58;100759.56;;;7.00;100.00
24230;BME280;12362;50.004;8.006;2023-03-29T05:15:25;100756.94;;;7.01;100.00
24230;BME280;12362;50.004;8.006;2023-03-29T05:17:50;100763.81;;;7.02;100.00
24230;BME280;12362;50.004;8.006;2023-03-29T05:20:16;100772.91;;;6.85;100.00
24230;BME280;12362;50.004;8.006;2023-03-29T05:22:45;100774.66;;;6.84;100.00
24230;BME280;12362;50.004;8.006;2023-03-29T05:25:20;100768.06;;;7.03;100.00
24230;BME280;12362;50.004;8.006;2023-03-29T05:27:46;100774.88;;;7.06;100.00
24230;BME280;12362;50.004;8.006;2023-03-29T05:30:13;100765.56;;;7.02;100.00
24230;BME280;12362;50.004;8.006;2023-03-29T05:32:55;100767.03;;;7.10;100.00
24230;BME280;12362;50.004;8.006;2023-03-29T05:35:23;100768.53;;;7.17;100.00
24230;BME280;12362;50.004;8.006;2023-03-29T05:37:54;100759.91;;;7.17;100.00
24230;BME280;12362;50.004;8.006;2023-03-29T05:40:21;100758.13;;;7.20;100.00
24230;BME280;12362;50.004;8.006;2023-03-29T05:43:12;100764.41;;;7.39;100.00
24230;BME280;12362;50.004;8.006;2023-03-29T05:45:39;100761.75;;;7.42;100.00
24230;BME280;12362;50.004;8.006;2023-03-29T05:48:05;100764.25;;;7.45;100.00
24230;BME280;12362;50.004;8.006;2023-03-29T05:50:31;100758.94;;;7.49;100.00
24230;BME280;12362;50.004;8.006;2023-03-29T05:52:57;100757.84;;;7.56;100.00
24230;BME280;12362;50.004;8.006;2023-03-29T05:55:22;100766.25;;;7.63;100.00
24230;BME280;12362;50.004;8.006;2023-03-29T05:57:48;100772.88;;;7.71;100.00
24230;BME280;12362;50.004;8.006;2023-03-29T06:00:16;100774.19;;;7.84;100.00
24230;BME280;12362;50.004;8.006;2023-03-29T06:03:02;100775.81;;;7.87;100.00
24230;BME280;12362;50.004;8.006;2023-03-29T06:05:28;100773.31;;;7.85;100.00
24230;BME280;12362;50.004;8.006;2023-03-29T06:07:56;100775.00;;;7.86;100.00
24230;BME280;12362;50.004;8.006;2023-03-29T06:10:29;100777.31;;;7.94;100.00
24230;BME280;12362;50.004;8.006;2023-03-29T06:13:08;100774.94;;;7.88;100.00
24230;BME280;12362;50.004;8.006;2023-03-29T06:15:38;100774.13;;;7.86;100.00
24230;BME280;12362;50.004;8.006;2023-03-29T06:18:05;100777.53;;;7.88;100.00
24230;BME280;12362;50.004;8.006;2023-03-29T06:20:36;100771.88;;;8.03;100.00
24230;BME280;12362;50.004;8.006;2023-03-29T06:23:10;100780.53;;;8.00;100.00
24230;BME280;12362;50.004;8.006;2023-03-29T06:25:36;100777.47;;;8.15;100.00
24230;BME280;12362;50.004;8.006;2023-03-29T06:28:03;100771.66;;;8.08;100.00
24230;BME280;12362;50.004;8.006;2023-03-29T06:30:29;100771.38;;;8.17;100.00
24230;BME280;12362;50.004;8.006;2023-03-29T06:32:58;100764.38;;;8.21;100.00
24230;BME280;12362;50.004;8.006;2023-03-29T06:35:52;100768.28;;;8.32;100.00
24230;BME280;12362;50.004;8.006;2023-03-29T06:38:24;100772.78;;;8.27;100.00
24230;BME280;12362;50.004;8.006;2023-03-29T06:41:06;100767.63;;;8.27;100.00
24230;BME280;12362;50.004;8.006;2023-03-29T06:44:11;100766.50;;;8.34;100.00
24230;BME280;12362;50.004;8.006;2023-03-29T06:46:53;100770.53;;;8.43;100.00
24230;BME280;12362;50.004;8.006;2023-03-29T06:49:26;100762.25;;;8.58;100.00
24230;BME280;12362;50.004;8.006;2023-03-29T06:55:41;100758.03;;;8.78;100.00
24230;BME280;12362;50.004;8.006;2023-03-29T07:02:54;100766.03;;;8.95;100.00
24230;BME280;12362;50.004;8.006;2023-03-29T07:06:04;100766.16;;;8.92;100.00
24230;BME280;12362;50.004;8.006;2023-03-29T07:08:37;100767.31;;;8.84;100.00
24230;BME280;12362;50.004;8.006;2023-03-29T07:11:28;100761.13;;;8.88;100.00
24230;BME280;12362;50.004;8.006;2023-03-29T07:14:03;100764.63;;;9.09;100.00
24230;BME280;12362;50.004;8.006;2023-03-29T07:16:47;100760.16;;;9.14;100.00
24230;BME280;12362;50.004;8.006;2023-03-29T07:19:22;100755.78;;;9.15;100.00
24230;BME280;12362;50.004;8.006;2023-03-29T07:21:52;100765.41;;;9.34;100.00
24230;BME280;12362;50.004;8.006;2023-03-29T07:24:21;100767.28;;;9.08;100.00
24230;BME280;12362;50.004;8.006;2023-03-29T07:26:47;100767.00;;;9.15;100.00
24230;BME280;12362;50.004;8.006;2023-03-29T07:29:16;100766.75;;;9.23;100.00
24230;BME280;12362;50.004;8.006;2023-03-29T07:31:43;100780.06;;;9.12;100.00
24230;BME280;12362;50.004;8.006;2023-03-29T07:34:33;100773.72;;;8.98;100.00
24230;BME280;12362;50.004;8.006;2023-03-29T07:37:01;100775.44;;;9.20;100.00
24230;BME280;12362;50.004;8.006;2023-03-29T07:39:27;100774.19;;;8.85;100.00
24230;BME280;12362;50.004;8.006;2023-03-29T07:42:22;100780.00;;;8.42;100.00
24230;BME280;12362;50.004;8.006;2023-03-29T07:44:48;100778.28;;;8.67;100.00
24230;BME280;12362;50.004;8.006;2023-03-29T07:47:14;100778.53;;;8.84;100.00
24230;BME280;12362;50.004;8.006;2023-03-29T07:49:40;100766.59;;;8.80;100.00
24230;BME280;12362;50.004;8.006;2023-03-29T07:52:07;100760.53;;;9.04;100.00
24230;BME280;12362;50.004;8.006;2023-03-29T07:54:38;100768.63;;;9.41;100.00
24230;BME280;12362;50.004;8.006;2023-03-29T07:57:28;100766.34;;;9.55;100.00
24230;BME280;12362;50.004;8.006;2023-03-29T07:59:56;100759.19;;;9.61;100.00
24230;BME280;12362;50.004;8.006;2023-03-29T08:02:25;100763.81;;;9.75;100.00
24230;BME280;12362;50.004;8.006;2023-03-29T08:04:55;100767.63;;;9.88;100.00
24230;BME280;12362;50.004;8.006;2023-03-29T08:07:21;100768.00;;;10.00;100.00
24230;BME280;12362;50.004;8.006;2023-03-29T08:09:51;100760.53;;;9.91;100.00
24230;BME280;12362;50.004;8.006;2023-03-29T08:12:19;100758.22;;;10.06;100.00
24230;BME280;12362;50.004;8.006;2023-03-29T08:14:45;100762.47;;;10.29;100.00
24230;BME280;12362;50.004;8.006;2023-03-29T08:17:15;100754.97;;;10.01;100.00
24230;BME280;12362;50.004;8.006;2023-03-29T08:19:46;100758.28;;;10.25;100.00
24230;BME280;12362;50.004;8.006;2023-03-29T08:22:12;100750.00;;;10.57;100.00
24230;BME280;12362;50.004;8.006;2023-03-29T08:25:06;100736.31;;;10.91;100.00
24230;BME280;12362;50.004;8.006;2023-03-29T08:27:36;100731.19;;;11.08;100.00
24230;BME280;12362;50.004;8.006;2023-03-29T08:30:05;100725.88;;;11.30;100.00
24230;BME280;12362;50.004;8.006;2023-03-29T08:32:34;100725.44;;;11.39;100.00
24230;BME280;12362;50.004;8.006;2023-03-29T08:35:02;100734.00;;;11.41;100.00
24230;BME280;12362;50.004;8.006;2023-03-29T08:37:36;100743.06;;;11.51;100.00
24230;BME280;12362;50.004;8.006;2023-03-29T08:40:03;100741.59;;;11.45;100.00
24230;BME280;12362;50.004;8.006;2023-03-29T08:43:11;100744.06;;;11.11;100.00
24230;BME280;12362;50.004;8.006;2023-03-29T08:46:28;100755.13;;;10.96;100.00
24230;BME280;12362;50.004;8.006;2023-03-29T08:49:07;100741.31;;;10.96;100.00
24230;BME280;12362;50.004;8.006;2023-03-29T08:51:38;100743.97;;;11.31;100.00
24230;BME280;12362;50.004;8.006;2023-03-29T08:54:09;100746.03;;;11.06;100.00
24230;BME280;12362;50.004;8.006;2023-03-29T08:57:21;100743.56;;;11.40;100.00
24230;BME280;12362;50.004;8.006;2023-03-29T08:59:56;100741.25;;;11.16;100.00
24230;BME280;12362;50.004;8.006;2023-03-29T09:02:25;100750.91;;;10.56;100.00
24230;BME280;12362;50.004;8.006;2023-03-29T09:05:04;100737.34;;;10.87;100.00
24230;BME280;12362;50.004;8.006;2023-03-29T09:07:38;100736.56;;;11.05;100.00
24230;BME280;12362;50.004;8.006;2023-03-29T09:10:03;100733.44;;;10.97;100.00
24230;BME280;12362;50.004;8.006;2023-03-29T09:12:52;100724.03;;;11.50;100.00
24230;BME280;12362;50.004;8.006;2023-03-29T09:15:30;100721.63;;;12.16;100.00
24230;BME280;12362;50.004;8.006;2023-03-29T09:21:34;100719.91;;;11.98;100.00
24230;BME280;12362;50.004;8.006;2023-03-29T09:24:31;100728.31;;;11.86;100.00
24230;BME280;12362;50.004;8.006;2023-03-29T09:27:13;100733.56;;;12.03;100.00
24230;BME280;12362;50.004;8.006;2023-03-29T09:30:12;100734.38;;;11.87;100.00
24230;BME280;12362;50.004;8.006;2023-03-29T09:33:23;100737.53;;;11.58;100.00
24230;BME280;12362;50.004;8.006;2023-03-29T09:38:57;100727.81;;;11.62;100.00
24230;BME280;12362;50.004;8.006;2023-03-29T09:41:37;100715.50;;;11.83;100.00
24230;BME280;12362;50.004;8.006;2023-03-29T09:44:14;100715.41;;;12.19;100.00
24230;BME280;12362;50.004;8.006;2023-03-29T09:46:50;100708.97;;;11.92;100.00
24230;BME280;12362;50.004;8.006;2023-03-29T09:49:20;100715.41;;;11.85;100.00
24230;BME280;12362;50.004;8.006;2023-03-29T09:51:48;100709.69;;;12.29;100.00
24230;BME280;12362;50.004;8.006;2023-03-29T09:54:16;100712.09;;;12.66;100.00
24230;BME280;12362;50.004;8.006;2023-03-29T09:57:12;100711.25;;;12.98;100.00
24230;BME280;12362;50.004;8.006;2023-03-29T09:59:39;100709.16;;;12.87;100.00
24230;BME280;12362;50.004;8.006;2023-03-29T10:05:24;100691.84;;;13.34;100.00
24230;BME280;12362;50.004;8.006;2023-03-29T10:07:53;100697.25;;;13.31;100.00
24230;BME280;12362;50.004;8.006;2023-03-29T10:10:30;100693.28;;;13.24;100.00
24230;BME280;12362;50.004;8.006;2023-03-29T10:13:05;100685.19;;;12.66;100.00
24230;BME280;12362;50.004;8.006;2023-03-29T10:15:31;100681.94;;;13.70;100.00
24230;BME280;12362;50.004;8.006;2023-03-29T10:17:59;100668.28;;;14.39;100.00
24230;BME280;12362;50.004;8.006;2023-03-29T10:20:25;100654.00;;;14.72;100.00
24230;BME280;12362;50.004;8.006;2023-03-29T10:22:56;100640.97;;;15.13;100.00
24230;BME280;12362;50.004;8.006;2023-03-29T10:25:28;100639.25;;;14.44;100.00
24230;BME280;12362;50.004;8.006;2023-03-29T10:28:09;100636.34;;;15.04;100.00
24230;BME280;12362;50.004;8.006;2023-03-29T10:30:36;100638.44;;;15.25;100.00
24230;BME280;12362;50.004;8.006;2023-03-29T10:33:05;100637.00;;;15.34;100.00
24230;BME280;12362;50.004;8.006;2023-03-29T10:35:37;100634.06;;;15.91;100.00
24230;BME280;12362;50.004;8.006;2023-03-29T10:38:10;100643.91;;;16.00;100.00
24230;BME280;12362;50.004;8.006;2023-03-29T10:40:45;100626.84;;;16.19;100.00
24230;BME280;12362;50.004;8.006;2023-03-29T10:43:13;100626.63;;;16.84;90.24
24230;BME280;12362;50.004;8.006;2023-03-29T10:45:49;100613.00;;;16.79;92.05
24230;BME280;12362;50.004;8.006;2023-03-29T10:48:15;100615.84;;;16.02;97.34
24230;BME280;12362;50.004;8.006;2023-03-29T10:50:47;100622.91;;;16.39;93.13
24230;BME280;12362;50.004;8.006;2023-03-29T10:53:25;100623.47;;;15.53;97.06
24230;BME280;12362;50.004;8.006;2023-03-29T10:56:15;100613.78;;;15.68;100.00
24230;BME280;12362;50.004;8.006;2023-03-29T11:07:44;100612.88;;;15.81;100.00
24230;BME280;12362;50.004;8.006;2023-03-29T11:18:56;100597.44;;;17.82;80.30
24230;BME280;12362;50.004;8.006;2023-03-29T11:26:58;100565.50;;;20.42;69.37
24230;BME280;12362;50.004;8.006;2023-03-29T12:24:49;100541.34;;;17.26;98.63
24230;BME280;12362;50.004;8.006;2023-03-29T12:28:16;100535.63;;;17.44;99.85
24230;BME280;12362;50.004;8.006;2023-03-29T12:55:28;100523.63;;;16.70;100.00
24230;BME280;12362;50.004;8.006;2023-03-29T13:06:09;100491.97;;;17.54;93.78
24230;BME280;12362;50.004;8.006;2023-03-29T13:08:42;100480.31;;;18.02;89.24
24230;BME280;12362;50.004;8.006;2023-03-29T13:11:36;100469.09;;;17.89;88.55
24230;BME280;12362;50.004;8.006;2023-03-29T13:14:12;100457.28;;;18.27;89.41
24230;BME280;12362;50.004;8.006;2023-03-29T13:16:41;100456.34;;;18.70;85.44
24230;BME280;12362;50.004;8.006;2023-03-29T13:19:26;100460.03;;;18.26;85.20
24230;BME280;12362;50.004;8.006;2023-03-29T13:22:04;100451.53;;;18.44;86.25
24230;BME280;12362;50.004;8.006;2023-03-29T13:24:45;100449.63;;;18.35;86.54
24230;BME280;12362;50.004;8.006;2023-03-29T13:27:57;100445.91;;;18.16;84.29
24230;BME280;12362;50.004;8.006;2023-03-29T13:36:06;100444.34;;;18.88;73.74
24230;BME280;12362;50.004;8.006;2023-03-29T13:38:50;100436.91;;;19.45;72.03
24230;BME280;12362;50.004;8.006;2023-03-29T13:46:47;100423.53;;;20.85;62.60
24230;BME280;12362;50.004;8.006;2023-03-29T13:49:19;100432.22;;;20.57;61.13
24230;BME280;12362;50.004;8.006;2023-03-29T13:52:18;100422.50;;;20.48;62.09
24230;BME280;12362;50.004;8.006;2023-03-29T13:55:06;100427.66;;;20.59;63.15
24230;BME280;12362;50.004;8.006;2023-03-29T13:58:16;100420.56;;;20.59;62.69
24230;BME280;12362;50.004;8.006;2023-03-29T14:00:53;100404.78;;;20.78;62.33
24230;BME280;12362;50.004;8.006;2023-03-29T14:03:21;100390.44;;;20.52;62.65
24230;BME280;12362;50.004;8.006;2023-03-29T14:05:59;100378.25;;;20.89;62.24
24230;BME280;12362;50.004;8.006;2023-03-29T14:08:28;100377.28;;;20.90;58.98
24230;BME280;12362;50.004;8.006;2023-03-29T14:10:56;100371.81;;;20.35;62.34
24230;BME280;12362;50.004;8.006;2023-03-29T14:13:25;100374.44;;;20.44;62.80
24230;BME280;12362;50.004;8.006;2023-03-29T14:16:06;100378.88;;;20.34;62.48
24230;BME280;12362;50.004;8.006;2023-03-29T14:18:39;100373.25;;;20.86;60.88
24230;BME280;12362;50.004;8.006;2023-03-29T14:21:11;100365.13;;;21.25;59.33
24230;BME280;12362;50.004;8.006;2023-03-29T14:23:43;100368.47;;;20.61;59.49
24230;BME280;12362;50.004;8.006;2023-03-29T14:26:17;100357.69;;;20.93;59.92
24230;BME280;12362;50.004;8.006;2023-03-29T14:28:52;100356.41;;;20.97;59.51
24230;BME280;12362;50.004;8.006;2023-03-29T14:31:25;100362.81;;;19.68;66.44
24230;BME280;12362;50.004;8.006;2023-03-29T14:34:02;100367.53;;;19.35;70.27
24230;BME280;12362;50.004;8.006;2023-03-29T14:36:30;100357.91;;;18.73;72.71
24230;BME280;12362;50.004;8.006;2023-03-29T14:39:03;100356.41;;;18.91;76.44
24230;BME280;12362;50.004;8.006;2023-03-29T14:41:32;100352.22;;;18.88;80.22
24230;BME280;12362;50.004;8.006;2023-03-29T14:43:59;100351.97;;;18.60;84.43
24230;BME280;12362;50.004;8.006;2023-03-29T14:46:25;100367.78;;;18.28;88.69
24230;BME280;12362;50.004;8.006;2023-03-29T14:48:52;100357.94;;;18.20;92.43
24230;BME280;12362;50.004;8.006;2023-03-29T14:51:24;100350.69;;;18.54;93.97
24230;BME280;12362;50.004;8.006;2023-03-29T14:53:59;100348.66;;;18.58;92.71
24230;BME280;12362;50.004;8.006;2023-03-29T14:56:26;100348.72;;;17.94;97.61
24230;BME280;12362;50.004;8.006;2023-03-29T14:58:55;100357.84;;;18.21;97.35
24230;BME280;12362;50.004;8.006;2023-03-29T15:01:24;100355.63;;;18.06;95.61
24230;BME280;12362;50.004;8.006;2023-03-29T15:03:56;100364.22;;;17.97;95.89
24230;BME280;12362;50.004;8.006;2023-03-29T15:06:26;100363.63;;;17.82;100.00
24230;BME280;12362;50.004;8.006;2023-03-29T15:08:55;100353.13;;;17.82;98.59
24230;BME280;12362;50.004;8.006;2023-03-29T15:11:24;100355.75;;;17.38;100.00
24230;BME280;12362;50.004;8.006;2023-03-29T15:14:01;100359.94;;;17.52;100.00
24230;BME280;12362;50.004;8.006;2023-03-29T15:16:28;100358.63;;;17.35;100.00
24230;BME280;12362;50.004;8.006;2023-03-29T15:18:55;100363.53;;;17.06;100.00
24230;BME280;12362;50.004;8.006;2023-03-29T15:21:21;100367.03;;;17.17;100.00
24230;BME280;12362;50.004;8.006;2023-03-29T15:23:56;100368.22;;;17.24;100.00
24230;BME280;12362;50.004;8.006;2023-03-29T15:26:25;100364.28;;;17.19;100.00
24230;BME280;12362;50.004;8.006;2023-03-29T15:29:13;100362.16;;;17.24;100.00
24230;BME280;12362;50.004;8.006;2023-03-29T15:31:44;100364.03;;;17.11;100.00
24230;BME280;12362;50.004;8.006;2023-03-29T15:34:26;100366.50;;;17.35;100.00
24230;BME280;12362;50.004;8.006;2023-03-29T15:36:52;100365.47;;;17.15;100.00
24230;BME280;12362;50.004;8.006;2023-03-29T15:39:18;100356.13;;;17.34;100.00
24230;BME280;12362;50.004;8.006;2023-03-29T15:41:49;100356.03;;;17.12;100.00
24230;BME280;12362;50.004;8.006;2023-03-29T15:44:16;100349.97;;;17.12;100.00
24230;BME280;12362;50.004;8.006;2023-03-29T15:46:45;100348.03;;;16.92;100.00
24230;BME280;12362;50.004;8.006;2023-03-29T15:49:12;100343.47;;;16.94;100.00
24230;BME280;12362;50.004;8.006;2023-03-29T15:51:39;100346.47;;;17.00;100.00
24230;BME280;12362;50.004;8.006;2023-03-29T15:54:05;100344.31;;;16.94;100.00